createdAt,value
2018-07-23T00:02:13.172Z,13.70
2018-07-23T00:04:41.334Z,14.27
2018-07-23T00:07:09.490Z,13.13
2018-07-23T00:09:37.716Z,14.00
2018-07-23T00:12:05.878Z,14.30
2018-07-23T00:14:34.106Z,14.40
2018-07-23T00:17:02.247Z,14.10
2018-07-23T00:19:30.414Z,13.60
2018-07-23T00:21:58.570Z,13.80
2018-07-23T00:24:26.735Z,14.23
2018-07-23T00:26:55.018Z,14.43
2018-07-23T00:29:23.187Z,13.23
2018-07-23T00:31:51.344Z,12.93
2018-07-23T00:34:19.510Z,14.03
2018-07-23T00:36:47.675Z,13.20
2018-07-23T00:39:15.829Z,13.57
2018-07-23T00:41:43.995Z,13.30
2018-07-23T00:44:12.151Z,14.23
2018-07-23T00:46:40.305Z,14.53
2018-07-23T00:49:08.458Z,15.57
2018-07-23T00:51:36.614Z,14.83
2018-07-23T00:54:04.770Z,13.27
2018-07-23T00:56:32.934Z,14.77
2018-07-23T00:59:01.087Z,13.90
2018-07-23T01:01:29.258Z,13.77
2018-07-23T01:03:57.410Z,14.17
2018-07-23T01:06:25.584Z,15.20
2018-07-23T01:08:53.739Z,16.03
2018-07-23T01:11:22.242Z,14.30
2018-07-23T01:13:50.398Z,15.70
2018-07-23T01:16:18.594Z,14.10
2018-07-23T01:18:46.754Z,14.40
2018-07-23T01:21:14.906Z,14.33
2018-07-23T01:23:43.070Z,15.07
2018-07-23T01:26:11.257Z,14.43
2018-07-23T01:28:39.456Z,15.00
2018-07-23T01:31:07.807Z,13.80
2018-07-23T01:33:35.974Z,14.13
2018-07-23T01:36:04.134Z,14.10
2018-07-23T01:38:32.295Z,15.90
2018-07-23T01:41:00.454Z,14.30
2018-07-23T01:43:28.625Z,14.13
2018-07-23T01:45:56.782Z,14.33
2018-07-23T01:48:24.930Z,14.93
2018-07-23T01:50:53.089Z,14.50
2018-07-23T01:53:21.246Z,15.13
2018-07-23T01:55:49.406Z,15.30
2018-07-23T01:58:17.570Z,16.07
2018-07-23T02:00:45.740Z,16.70
2018-07-23T02:03:13.886Z,14.47
2018-07-23T02:05:42.065Z,15.67
2018-07-23T02:08:10.223Z,15.17
2018-07-23T02:10:38.393Z,14.90
2018-07-23T02:13:06.605Z,14.63
2018-07-23T02:15:34.769Z,15.00
2018-07-23T02:18:02.938Z,14.00
2018-07-23T02:20:31.108Z,15.10
2018-07-23T02:22:59.290Z,14.27
2018-07-23T02:25:27.478Z,16.73
2018-07-23T02:27:55.646Z,13.50
2018-07-23T02:30:23.822Z,15.30
2018-07-23T02:32:51.978Z,14.70
2018-07-23T02:35:20.149Z,14.83
2018-07-23T02:37:48.306Z,15.10
2018-07-23T02:40:16.474Z,13.43
2018-07-23T02:42:44.651Z,14.30
2018-07-23T02:45:12.814Z,15.13
2018-07-23T02:47:41.002Z,14.80
2018-07-23T02:50:09.174Z,14.13
2018-07-23T02:52:37.321Z,13.97
2018-07-23T02:55:05.518Z,13.67
2018-07-23T02:57:33.687Z,14.27
2018-07-23T03:00:01.867Z,13.70
2018-07-23T03:02:30.043Z,13.23
2018-07-23T03:04:58.227Z,14.30
2018-07-23T03:07:26.398Z,13.73
2018-07-23T03:09:54.574Z,13.93
2018-07-23T03:12:22.743Z,13.40
2018-07-23T03:14:50.926Z,13.20
2018-07-23T03:17:19.090Z,15.40
2018-07-23T03:19:47.274Z,14.97
2018-07-23T03:22:15.444Z,13.60
2018-07-23T03:24:43.754Z,14.80
2018-07-23T03:27:11.919Z,15.47
2018-07-23T03:29:40.083Z,16.13
2018-07-23T03:32:08.279Z,14.70
2018-07-23T03:34:36.453Z,14.20
2018-07-23T03:37:04.630Z,15.10
2018-07-23T03:39:32.785Z,15.20
2018-07-23T03:42:00.953Z,13.80
2018-07-23T03:44:29.121Z,14.87
2018-07-23T03:46:57.297Z,15.00
2018-07-23T03:49:25.457Z,14.30
2018-07-23T03:51:53.653Z,15.77
2018-07-23T03:54:21.818Z,15.60
2018-07-23T03:56:50.009Z,13.97
2018-07-23T03:59:18.174Z,14.60
2018-07-23T04:01:46.346Z,13.87
2018-07-23T04:04:17.643Z,14.53
2018-07-23T04:06:47.443Z,14.97
2018-07-23T04:09:15.825Z,13.50
2018-07-23T04:11:44.501Z,13.70
2018-07-23T04:14:12.789Z,14.90
2018-07-23T04:16:40.958Z,13.33
2018-07-23T04:19:09.243Z,12.00
2018-07-23T04:21:37.610Z,13.80
2018-07-23T04:24:06.113Z,15.17
2018-07-23T04:26:34.283Z,15.73
2018-07-23T04:29:02.464Z,16.17
2018-07-23T04:31:30.678Z,14.37
2018-07-23T04:33:58.862Z,13.90
2018-07-23T04:36:27.017Z,14.87
2018-07-23T04:38:55.202Z,14.77
2018-07-23T04:41:23.383Z,14.77
2018-07-23T04:43:51.561Z,13.63
2018-07-23T04:46:20.430Z,14.10
2018-07-23T04:48:48.598Z,13.37
2018-07-23T04:51:16.778Z,14.07
2018-07-23T04:53:44.962Z,14.67
2018-07-23T04:56:13.122Z,13.80
2018-07-23T04:58:41.290Z,13.93
2018-07-23T05:01:09.482Z,15.37
2018-07-23T05:03:37.646Z,14.83
2018-07-23T05:06:06.026Z,15.70
2018-07-23T05:08:34.226Z,14.40
2018-07-23T05:11:02.369Z,16.13
2018-07-23T05:13:30.538Z,16.23
2018-07-23T05:15:58.727Z,15.40
2018-07-23T05:18:26.886Z,16.00
2018-07-23T05:20:55.054Z,15.23
2018-07-23T05:23:23.237Z,15.10
2018-07-23T05:25:51.428Z,16.10
2018-07-23T05:28:19.578Z,16.00
2018-07-23T05:30:47.762Z,16.17
2018-07-23T05:33:16.212Z,15.03
2018-07-23T05:35:44.386Z,15.10
2018-07-23T05:38:12.597Z,14.53
2018-07-23T05:40:41.337Z,15.30
2018-07-23T05:43:09.506Z,17.07
2018-07-23T05:45:37.718Z,17.53
2018-07-23T05:48:05.911Z,18.97
2018-07-23T05:50:34.258Z,20.40
2018-07-23T05:53:02.608Z,20.80
2018-07-23T05:55:31.735Z,21.23
2018-07-23T05:58:00.055Z,18.77
2018-07-23T06:00:28.243Z,18.60
2018-07-23T06:02:56.415Z,19.03
2018-07-23T06:05:24.606Z,18.90
2018-07-23T06:07:52.770Z,18.67
2018-07-23T06:10:20.962Z,22.43
2018-07-23T06:12:49.140Z,23.27
2018-07-23T06:15:17.455Z,21.43
2018-07-23T06:17:47.335Z,20.93
2018-07-23T06:20:15.779Z,24.57
2018-07-23T06:22:44.255Z,23.50
2018-07-23T06:25:12.441Z,22.90
2018-07-23T06:27:40.619Z,20.90
2018-07-23T06:30:10.493Z,23.33
2018-07-23T06:32:38.763Z,24.57
2018-07-23T06:35:06.995Z,22.47
2018-07-23T06:37:35.636Z,25.43
2018-07-23T06:40:04.654Z,26.13
2018-07-23T06:42:32.830Z,25.60
2018-07-23T06:45:01.001Z,26.10
2018-07-23T06:47:29.174Z,25.03
2018-07-23T06:49:57.342Z,22.47
2018-07-23T06:52:25.770Z,20.87
2018-07-23T06:54:54.046Z,20.63
2018-07-23T06:57:22.250Z,21.50
2018-07-23T06:59:50.578Z,21.40
2018-07-23T07:02:18.766Z,21.50
2018-07-23T07:04:46.934Z,24.77
2018-07-23T07:07:15.106Z,23.50
2018-07-23T07:09:43.270Z,22.50
2018-07-23T07:12:11.470Z,23.20
2018-07-23T07:14:39.645Z,21.90
2018-07-23T07:17:07.830Z,25.43
2018-07-23T07:19:36.015Z,20.60
2018-07-23T07:22:04.193Z,24.60
2018-07-23T07:24:32.454Z,22.90
2018-07-23T07:27:00.646Z,25.00
2018-07-23T07:29:28.854Z,23.33
2018-07-23T07:31:57.018Z,23.47
2018-07-23T07:34:25.203Z,22.73
2018-07-23T07:36:53.410Z,24.47
2018-07-23T07:39:21.601Z,22.17
2018-07-23T07:41:49.806Z,23.10
2018-07-23T07:44:17.987Z,24.23
2018-07-23T07:46:46.174Z,25.60
2018-07-23T07:49:14.375Z,26.77
2018-07-23T07:51:42.602Z,24.10
2018-07-23T07:54:10.775Z,25.93
2018-07-23T07:56:38.966Z,24.57
2018-07-23T07:59:07.185Z,23.43
2018-07-23T08:01:35.478Z,23.33
2018-07-23T08:04:03.643Z,26.63
2018-07-23T08:06:31.826Z,27.60
2018-07-23T08:09:00.006Z,26.80
2018-07-23T08:11:28.356Z,29.00
2018-07-23T08:13:56.881Z,25.90
2018-07-23T08:16:25.175Z,26.67
2018-07-23T08:18:53.443Z,25.50
2018-07-23T08:21:21.934Z,25.77
2018-07-23T08:23:50.482Z,23.83
2018-07-23T08:26:18.937Z,22.47
2018-07-23T08:28:47.434Z,24.93
2018-07-23T08:31:15.709Z,21.87
2018-07-23T08:33:44.046Z,23.17
2018-07-23T08:36:12.297Z,21.90
2018-07-23T08:38:40.787Z,16.87
2018-07-23T08:41:09.126Z,19.53
2018-07-23T08:43:37.406Z,22.43
2018-07-23T08:46:05.706Z,23.87
2018-07-23T08:48:34.046Z,24.00
2018-07-23T08:51:02.556Z,19.70
2018-07-23T08:53:30.849Z,20.67
2018-07-23T08:55:59.174Z,21.03
2018-07-23T08:58:27.423Z,22.70
2018-07-23T09:00:55.612Z,25.93
2018-07-23T09:03:23.803Z,23.93
2018-07-23T09:05:51.990Z,21.67
2018-07-23T09:08:20.202Z,20.60
2018-07-23T09:10:48.354Z,22.43
2018-07-23T09:13:16.524Z,21.17
2018-07-23T09:15:44.701Z,23.00
2018-07-23T09:18:12.875Z,21.67
2018-07-23T09:20:41.047Z,21.60
2018-07-23T09:23:09.257Z,20.70
2018-07-23T09:25:42.833Z,17.67
2018-07-23T09:28:11.009Z,21.73
2018-07-23T09:30:44.398Z,20.33
2018-07-23T09:33:12.586Z,21.10
2018-07-23T09:35:40.801Z,20.63
2018-07-23T09:38:08.987Z,20.70
2018-07-23T09:40:37.290Z,18.93
2018-07-23T09:43:05.774Z,18.60
2018-07-23T09:45:34.086Z,16.50
2018-07-23T09:48:02.254Z,18.93
2018-07-23T09:50:30.441Z,21.67
2018-07-23T09:52:58.644Z,23.97
2018-07-23T09:55:26.810Z,23.33
2018-07-23T09:57:54.976Z,21.70
2018-07-23T10:00:28.326Z,23.00
2018-07-23T10:02:56.698Z,20.57
2018-07-23T10:05:24.870Z,22.83
2018-07-23T10:07:53.039Z,18.37
2018-07-23T10:10:21.522Z,21.10
2018-07-23T10:12:49.694Z,20.33
2018-07-23T10:15:17.890Z,16.60
2018-07-23T10:17:46.206Z,16.47
2018-07-23T10:20:14.419Z,17.90
2018-07-23T10:22:42.902Z,20.67
2018-07-23T10:25:11.070Z,18.37
2018-07-23T10:27:39.259Z,16.70
2018-07-23T10:30:07.462Z,15.57
2018-07-23T10:32:35.910Z,17.90
2018-07-23T10:35:04.118Z,17.90
2018-07-23T10:37:32.295Z,17.83
2018-07-23T10:40:00.466Z,18.57
2018-07-23T10:42:28.634Z,17.13
2018-07-23T10:44:56.795Z,15.70
2018-07-23T10:47:25.043Z,15.10
2018-07-23T10:49:53.445Z,17.03
2018-07-23T10:52:21.622Z,15.73
2018-07-23T10:54:49.823Z,14.53
2018-07-23T10:57:18.042Z,14.80
2018-07-23T10:59:46.230Z,14.90
2018-07-23T11:02:14.389Z,16.77
2018-07-23T11:04:42.562Z,16.50
2018-07-23T11:07:10.768Z,14.33
2018-07-23T11:09:38.943Z,16.60
2018-07-23T11:12:07.254Z,14.90
2018-07-23T11:14:35.599Z,15.73
2018-07-23T11:17:03.748Z,16.10
2018-07-23T11:19:31.946Z,16.10
2018-07-23T11:22:00.402Z,16.70
2018-07-23T11:24:28.570Z,15.50
2018-07-23T11:26:56.803Z,14.93
2018-07-23T11:29:24.981Z,15.20
2018-07-23T11:31:53.126Z,13.70
2018-07-23T11:34:22.265Z,15.10
2018-07-23T11:36:50.497Z,13.97
2018-07-23T11:39:18.662Z,15.03
2018-07-23T11:41:46.819Z,15.20
2018-07-23T11:44:14.974Z,14.40
2018-07-23T11:46:43.138Z,15.83
2018-07-23T11:49:11.291Z,15.30
2018-07-23T11:51:39.450Z,14.40
2018-07-23T11:54:07.801Z,16.50
2018-07-23T11:56:36.011Z,17.50
2018-07-23T11:59:04.254Z,15.23
2018-07-23T12:01:32.422Z,16.00
2018-07-23T12:04:00.583Z,13.33
2018-07-23T12:06:28.753Z,13.97
2018-07-23T12:08:56.918Z,14.37
2018-07-23T12:11:25.091Z,15.80
2018-07-23T12:13:53.251Z,14.90
2018-07-23T12:16:21.434Z,15.67
2018-07-23T12:18:49.590Z,14.23
2018-07-23T12:21:17.742Z,15.27
2018-07-23T12:23:45.911Z,14.63
2018-07-23T12:26:14.067Z,15.00
2018-07-23T12:28:42.233Z,15.30
2018-07-23T12:31:10.422Z,14.87
2018-07-23T12:33:38.896Z,12.77
2018-07-23T12:36:08.013Z,13.50
2018-07-23T12:38:36.407Z,13.73
2018-07-23T12:41:05.262Z,13.00
2018-07-23T12:43:33.576Z,11.23
2018-07-23T12:46:01.727Z,13.63
2018-07-23T12:48:29.890Z,15.53
2018-07-23T12:50:58.042Z,13.83
2018-07-23T12:53:26.206Z,14.53
2018-07-23T12:55:54.363Z,13.10
2018-07-23T12:58:22.526Z,13.30
2018-07-23T13:00:50.687Z,13.87
2018-07-23T13:03:18.855Z,14.97
2018-07-23T13:05:47.042Z,13.53
2018-07-23T13:08:15.240Z,13.03
2018-07-23T13:10:43.390Z,13.33
2018-07-23T13:13:11.552Z,14.27
2018-07-23T13:15:39.813Z,12.97
2018-07-23T13:18:08.234Z,14.17
2018-07-23T13:20:36.470Z,13.20
2018-07-23T13:23:05.184Z,14.50
2018-07-23T13:25:33.394Z,12.23
2018-07-23T13:28:01.510Z,12.20
2018-07-23T13:30:29.706Z,13.50
2018-07-23T13:32:58.093Z,11.60
2018-07-23T13:35:26.506Z,12.33
2018-07-23T13:37:54.772Z,11.73
2018-07-23T13:40:22.995Z,11.63
2018-07-23T13:42:51.239Z,11.73
2018-07-23T13:45:19.651Z,11.57
2018-07-23T13:47:48.179Z,11.53
2018-07-23T13:50:16.559Z,11.77
2018-07-23T13:52:44.853Z,11.87
2018-07-23T13:55:13.218Z,11.47
2018-07-23T13:57:41.763Z,11.33
2018-07-23T14:00:09.986Z,11.03
2018-07-23T14:02:38.228Z,9.73
2018-07-23T14:05:06.498Z,10.27
2018-07-23T14:07:34.646Z,10.80
2018-07-23T14:10:02.843Z,9.60
2018-07-23T14:12:30.999Z,10.13
2018-07-23T14:14:59.291Z,9.80
2018-07-23T14:17:27.574Z,10.43
2018-07-23T14:19:55.927Z,10.73
2018-07-23T14:22:24.335Z,9.50
2018-07-23T14:24:52.482Z,9.20
2018-07-23T14:27:20.750Z,8.83
2018-07-23T14:29:49.006Z,9.83
2018-07-23T14:32:17.570Z,9.97
2018-07-23T14:34:45.907Z,9.67
2018-07-23T14:37:14.530Z,10.77
2018-07-23T14:39:42.879Z,10.20
2018-07-23T14:42:11.070Z,11.07
2018-07-23T14:44:39.231Z,9.77
2018-07-23T14:47:08.438Z,10.03
2018-07-23T14:49:36.660Z,11.03
2018-07-23T14:52:04.987Z,11.53
2018-07-23T14:54:33.196Z,10.27
2018-07-23T14:57:01.469Z,10.17
2018-07-23T14:59:30.141Z,10.97
2018-07-23T15:01:58.323Z,10.73
2018-07-23T15:04:27.364Z,10.47
2018-07-23T15:06:55.778Z,10.30
2018-07-23T15:09:23.937Z,10.50
2018-07-23T15:11:52.108Z,9.47
2018-07-23T15:14:20.264Z,10.70
2018-07-23T15:16:48.456Z,11.03
2018-07-23T15:19:16.622Z,10.80
2018-07-23T15:21:44.806Z,10.27
2018-07-23T15:24:12.973Z,10.20
2018-07-23T15:26:41.146Z,11.90
2018-07-23T15:29:09.324Z,10.93
2018-07-23T15:31:37.518Z,12.07
2018-07-23T15:34:05.756Z,11.60
2018-07-23T15:36:34.048Z,11.67
2018-07-23T15:39:02.219Z,11.30
2018-07-23T15:41:30.379Z,11.67
2018-07-23T15:43:58.643Z,13.63
2018-07-23T15:46:26.776Z,13.67
2018-07-23T15:48:54.954Z,12.77
2018-07-23T15:51:23.154Z,19.53
2018-07-23T15:53:51.347Z,13.83
2018-07-23T15:56:19.551Z,14.53
2018-07-23T15:58:47.722Z,13.30
2018-07-23T16:01:15.890Z,14.07
2018-07-23T16:03:44.064Z,13.20
2018-07-23T16:06:12.274Z,13.40
2018-07-23T16:08:40.430Z,13.87
2018-07-23T16:11:09.747Z,13.87
2018-07-23T16:13:37.906Z,14.17
2018-07-23T16:16:06.233Z,13.97
2018-07-23T16:18:34.741Z,14.20
2018-07-23T16:21:03.386Z,15.10
2018-07-23T16:23:31.711Z,14.57
2018-07-23T16:25:59.883Z,14.50
2018-07-23T16:28:28.045Z,13.37
2018-07-23T16:30:56.227Z,14.40
2018-07-23T16:33:24.606Z,12.53
2018-07-23T16:35:52.782Z,13.20
2018-07-23T16:38:20.939Z,14.07
2018-07-23T16:40:49.150Z,11.87
2018-07-23T16:43:17.333Z,12.70
2018-07-23T16:45:45.590Z,12.70
2018-07-23T16:48:13.771Z,12.90
2018-07-23T16:50:42.006Z,13.40
2018-07-23T16:53:10.219Z,12.57
2018-07-23T16:55:38.434Z,12.60
2018-07-23T16:58:07.723Z,12.43
2018-07-23T17:00:35.890Z,13.83
2018-07-23T17:03:04.075Z,13.30
2018-07-23T17:05:32.375Z,13.60
2018-07-23T17:08:00.522Z,13.33
2018-07-23T17:10:28.688Z,13.20
2018-07-23T17:12:56.882Z,13.13
2018-07-23T17:15:25.242Z,13.03
2018-07-23T17:17:53.465Z,13.40
2018-07-23T17:20:21.638Z,14.53
2018-07-23T17:22:49.870Z,12.60
2018-07-23T17:25:18.273Z,13.27
2018-07-23T17:27:46.838Z,12.20
2018-07-23T17:30:15.067Z,15.30
2018-07-23T17:32:43.254Z,15.20
2018-07-23T17:35:11.655Z,12.97
2018-07-23T17:37:39.910Z,14.77
2018-07-23T17:40:08.310Z,14.10
2018-07-23T17:42:36.466Z,13.30
2018-07-23T17:45:04.764Z,12.80
2018-07-23T17:47:32.857Z,13.53
2018-07-23T17:50:01.022Z,14.20
2018-07-23T17:52:29.186Z,13.07
2018-07-23T17:54:57.358Z,14.80
2018-07-23T17:57:25.523Z,14.40
2018-07-23T17:59:53.751Z,14.27
2018-07-23T18:02:21.918Z,13.80
2018-07-23T18:04:50.109Z,14.50
2018-07-23T18:07:18.406Z,14.20
2018-07-23T18:09:46.762Z,14.30
2018-07-23T18:12:15.020Z,15.40
2018-07-23T18:14:43.235Z,14.90
2018-07-23T18:17:11.473Z,15.33
2018-07-23T18:19:39.868Z,15.10
2018-07-23T18:22:08.566Z,14.33
2018-07-23T18:24:36.812Z,14.23
2018-07-23T18:27:05.247Z,13.30
2018-07-23T18:29:33.494Z,13.70
2018-07-23T18:32:01.731Z,14.50
2018-07-23T18:34:29.979Z,15.50
2018-07-23T18:36:58.344Z,13.73
2018-07-23T18:39:26.567Z,13.70
2018-07-23T18:41:54.995Z,15.17
2018-07-23T18:44:23.282Z,15.10
2018-07-23T18:46:51.590Z,13.80
2018-07-23T18:49:48.719Z,18.50
2018-07-23T18:52:17.621Z,18.07
2018-07-23T18:54:47.242Z,17.40
2018-07-23T18:57:15.790Z,18.43
2018-07-23T18:59:44.154Z,19.33
2018-07-23T19:02:13.466Z,18.03
2018-07-23T19:04:41.658Z,17.83
2018-07-23T19:07:10.132Z,14.10
2018-07-23T19:09:38.335Z,15.07
2018-07-23T19:12:07.016Z,15.03
2018-07-23T19:14:35.276Z,14.17
2018-07-23T19:17:04.518Z,15.20
2018-07-23T19:19:32.697Z,14.17
2018-07-23T19:22:00.945Z,15.30
2018-07-23T19:24:29.178Z,14.70
2018-07-23T19:26:57.362Z,14.90
2018-07-23T19:29:25.643Z,15.00
2018-07-23T19:31:53.905Z,13.60
2018-07-23T19:34:22.282Z,14.87
2018-07-23T19:36:50.504Z,14.47
2018-07-23T19:39:20.101Z,14.37
2018-07-23T19:41:48.273Z,14.77
2018-07-23T19:44:16.462Z,15.47
2018-07-23T19:46:44.680Z,14.73
2018-07-23T19:49:12.992Z,15.40
2018-07-23T19:51:41.198Z,15.83
2018-07-23T19:54:10.070Z,15.03
2018-07-23T19:56:38.306Z,14.70
2018-07-23T19:59:06.514Z,14.73
2018-07-23T20:01:34.769Z,15.97
2018-07-23T20:04:02.955Z,14.77
2018-07-23T20:06:31.395Z,15.93
2018-07-23T20:09:00.580Z,15.13
2018-07-23T20:11:29.338Z,16.70
2018-07-23T20:13:57.523Z,16.23
2018-07-23T20:16:26.404Z,15.27
2018-07-23T20:18:54.620Z,15.43
2018-07-23T20:21:22.914Z,16.10
2018-07-23T20:23:51.151Z,16.43
2018-07-23T20:26:19.331Z,16.37
2018-07-23T20:28:47.518Z,17.60
2018-07-23T20:31:16.116Z,16.57
2018-07-23T20:33:44.401Z,16.20
2018-07-23T20:36:12.636Z,16.63
2018-07-23T20:38:41.502Z,17.80
2018-07-23T20:41:10.123Z,16.80
2018-07-23T20:43:38.588Z,16.10
2018-07-23T20:46:06.828Z,17.27
2018-07-23T20:48:34.998Z,16.30
2018-07-23T20:51:03.235Z,15.90
2018-07-23T20:53:31.419Z,16.17
2018-07-23T20:55:59.623Z,17.93
2018-07-23T20:58:27.834Z,16.37
2018-07-23T21:00:56.022Z,15.97
2018-07-23T21:03:24.210Z,16.60
2018-07-23T21:05:52.458Z,16.80
2018-07-23T21:08:20.642Z,15.67
2018-07-23T21:10:48.825Z,15.90
2018-07-23T21:13:17.002Z,13.90
2018-07-23T21:15:45.175Z,16.10
2018-07-23T21:18:13.353Z,16.97
2018-07-23T21:20:41.538Z,16.90
2018-07-23T21:23:09.738Z,17.60
2018-07-23T21:25:37.932Z,18.47
2018-07-23T21:28:06.094Z,19.63
2018-07-23T21:30:34.290Z,19.90
2018-07-23T21:33:02.467Z,18.20
2018-07-23T21:35:30.666Z,18.93
2018-07-23T21:37:58.838Z,18.17
2018-07-23T21:40:27.010Z,17.50
2018-07-23T21:42:55.166Z,19.63
2018-07-23T21:45:23.318Z,19.00
2018-07-23T21:47:51.555Z,18.90
2018-07-23T21:50:19.734Z,18.23
2018-07-23T21:52:47.894Z,17.40
2018-07-23T21:55:16.074Z,18.40
2018-07-23T21:57:44.238Z,18.30
2018-07-23T22:00:14.410Z,18.23
2018-07-23T22:02:43.419Z,17.13
2018-07-23T22:05:11.778Z,17.53
2018-07-23T22:07:40.062Z,17.90
2018-07-23T22:10:09.254Z,18.37
2018-07-23T22:12:37.446Z,17.70
2018-07-23T22:15:06.895Z,17.47
2018-07-23T22:17:35.106Z,17.40
2018-07-23T22:20:03.286Z,17.73
2018-07-23T22:22:31.662Z,17.27
2018-07-23T22:24:59.822Z,19.53
2018-07-23T22:27:28.002Z,19.57
2018-07-23T22:29:56.170Z,17.70
2018-07-23T22:32:24.338Z,18.17
2018-07-23T22:34:52.510Z,17.73
2018-07-23T22:37:20.682Z,18.50
2018-07-23T22:39:48.858Z,17.50
2018-07-23T22:42:17.078Z,18.27
2018-07-23T22:44:48.594Z,19.07
2018-07-23T22:47:16.758Z,19.63
2018-07-23T22:49:45.066Z,17.67
2018-07-23T22:52:13.226Z,19.40
2018-07-23T22:54:41.386Z,19.63
2018-07-23T22:57:09.556Z,18.47
2018-07-23T22:59:37.770Z,17.53
2018-07-23T23:02:05.974Z,18.63
2018-07-23T23:04:34.134Z,16.77
2018-07-23T23:07:02.506Z,18.47
2018-07-23T23:09:30.690Z,19.47
2018-07-23T23:11:58.841Z,21.20
2018-07-23T23:14:27.000Z,19.80
2018-07-23T23:16:55.177Z,20.07
2018-07-23T23:19:23.350Z,20.40
2018-07-23T23:21:51.522Z,19.70
2018-07-23T23:24:19.688Z,18.47
2018-07-23T23:26:47.871Z,19.67
2018-07-23T23:29:16.022Z,20.10
2018-07-23T23:31:44.201Z,19.20
2018-07-23T23:34:12.366Z,20.67
2018-07-23T23:36:40.526Z,20.30
2018-07-23T23:39:10.190Z,19.40
2018-07-23T23:41:38.370Z,20.10
2018-07-23T23:44:06.549Z,20.00
2018-07-23T23:46:35.014Z,20.33
2018-07-23T23:49:03.270Z,21.50
2018-07-23T23:51:31.471Z,21.93
2018-07-23T23:54:00.060Z,20.20
2018-07-23T23:56:28.282Z,19.93
2018-07-23T23:58:56.602Z,19.43
